Terminal Aerodrome Forecast
Issued by NWS Paducah, KY

Home | Current Version | Previous Version | Text Only | Print | Product List | Glossary On
Versions: 1 2 3 4 5 6 7 8 9 10 11 12 13 14 15 16 17 18 19 20 21 22 23 24
000
FTUS43 KPAH 300300 AAA
TAFPAH
TAF AMD
KPAH 300313Z 3003/3024 17005KT P6SM BKN150
     FM300400 25017G27KT P6SM VCTS OVC060CB
      TEMPO 3004/3006 VRB03KT 3SM TSRA BR BKN040CB
     FM300600 17004KT P6SM VCTS OVC035CB
     FM301200 17004KT 4SM SHRA BR BKN050
     FM301500 20007KT 3SM SHRA BR OVC035=

USA.gov is the U.S. government's official web portal to all federal, state and local government web resources and services.